createdAt,value
2023-03-27T00:01:21.604Z,3.90
2023-03-27T00:03:51.289Z,3.90
2023-03-27T00:06:25.230Z,3.80
2023-03-27T00:08:56.419Z,3.80
2023-03-27T00:11:25.405Z,3.70
2023-03-27T00:13:56.907Z,3.70
2023-03-27T00:16:27.737Z,3.70
2023-03-27T00:18:57.524Z,3.70
2023-03-27T00:21:26.340Z,3.60
2023-03-27T00:23:56.865Z,3.60
2023-03-27T00:26:25.586Z,3.60
2023-03-27T00:28:54.988Z,3.50
2023-03-27T00:31:23.627Z,3.50
2023-03-27T00:33:52.703Z,3.40
2023-03-27T00:36:21.581Z,3.50
2023-03-27T00:38:53.328Z,3.50
2023-03-27T00:41:24.278Z,3.50
2023-03-27T00:43:56.582Z,3.50
2023-03-27T00:46:36.282Z,3.60
2023-03-27T00:49:09.786Z,3.60
2023-03-27T00:51:40.789Z,3.60
2023-03-27T00:54:10.110Z,3.60
2023-03-27T00:56:40.842Z,3.50
2023-03-27T00:59:12.718Z,3.50
2023-03-27T01:01:42.668Z,3.40
2023-03-27T01:04:11.728Z,3.30
2023-03-27T01:06:42.338Z,3.20
2023-03-27T01:09:11.202Z,3.20
2023-03-27T01:12:07.306Z,3.20
2023-03-27T01:14:42.174Z,3.20
2023-03-27T01:17:27.022Z,3.10
2023-03-27T01:20:33.833Z,3.20
2023-03-27T01:24:00.239Z,3.20
2023-03-27T01:27:05.544Z,3.10
2023-03-27T01:30:32.606Z,3.20
2023-03-27T01:33:46.764Z,3.30
2023-03-27T01:37:12.947Z,3.30
2023-03-27T01:39:51.760Z,3.40
2023-03-27T01:42:24.910Z,3.30
2023-03-27T01:45:02.520Z,3.20
2023-03-27T01:47:43.979Z,3.10
2023-03-27T01:50:20.154Z,2.90
2023-03-27T01:52:55.260Z,2.70
2023-03-27T01:55:29.969Z,2.70
2023-03-27T01:58:03.310Z,2.60
2023-03-27T02:00:51.857Z,2.50
2023-03-27T02:03:28.854Z,2.40
2023-03-27T02:06:02.944Z,2.20
2023-03-27T02:08:37.809Z,2.20
2023-03-27T02:11:23.277Z,2.20
2023-03-27T02:13:58.071Z,2.30
2023-03-27T02:16:33.895Z,2.20
2023-03-27T02:19:04.973Z,2.10
2023-03-27T02:21:34.394Z,2.10
2023-03-27T02:24:06.352Z,2.10
2023-03-27T02:26:36.820Z,2.00
2023-03-27T02:29:25.700Z,2.10
2023-03-27T02:32:06.193Z,2.10
2023-03-27T02:34:51.408Z,2.00
2023-03-27T02:37:32.790Z,2.00
2023-03-27T02:40:32.587Z,1.90
2023-03-27T02:43:35.145Z,1.80
2023-03-27T02:46:11.398Z,1.80
2023-03-27T02:48:44.720Z,1.80
2023-03-27T02:51:19.546Z,1.80
2023-03-27T02:53:54.481Z,1.70
2023-03-27T02:56:26.284Z,1.80
2023-03-27T02:59:01.632Z,1.70
2023-03-27T03:01:39.867Z,1.70
2023-03-27T03:04:41.850Z,1.70
2023-03-27T03:07:31.232Z,1.70
2023-03-27T03:09:59.969Z,1.40
2023-03-27T03:12:29.318Z,1.40
2023-03-27T03:15:00.059Z,1.30
2023-03-27T03:17:28.787Z,1.30
2023-03-27T03:19:57.342Z,1.40
2023-03-27T03:22:27.710Z,1.20
2023-03-27T03:24:57.310Z,1.20
2023-03-27T03:27:29.535Z,1.20
2023-03-27T03:30:09.683Z,1.20
2023-03-27T03:33:01.740Z,1.10
2023-03-27T03:35:31.056Z,1.00
2023-03-27T03:38:06.728Z,1.00
2023-03-27T03:40:44.967Z,1.10
2023-03-27T03:43:14.136Z,1.10
2023-03-27T03:45:44.417Z,1.00
2023-03-27T03:48:13.085Z,1.20
2023-03-27T03:50:42.040Z,1.30
2023-03-27T03:53:10.770Z,1.30
2023-03-27T03:55:39.359Z,1.30
2023-03-27T03:58:08.200Z,1.30
2023-03-27T04:00:39.505Z,1.30
2023-03-27T04:03:16.697Z,1.30
2023-03-27T04:05:45.800Z,1.30
2023-03-27T04:08:14.571Z,1.30
2023-03-27T04:11:01.623Z,1.40
2023-03-27T04:13:59.067Z,1.40
2023-03-27T04:16:36.799Z,1.40
2023-03-27T04:19:18.300Z,1.40
2023-03-27T04:21:52.420Z,1.40
2023-03-27T04:24:21.225Z,1.50
2023-03-27T04:26:51.365Z,1.50
2023-03-27T04:29:22.534Z,1.60
2023-03-27T04:32:01.497Z,1.60
2023-03-27T04:34:44.081Z,1.60
2023-03-27T04:37:32.835Z,1.60
2023-03-27T04:40:19.221Z,1.60
2023-03-27T04:42:50.382Z,1.50
2023-03-27T04:45:23.156Z,1.50
2023-03-27T04:47:53.193Z,1.50
2023-03-27T04:50:23.746Z,1.50
2023-03-27T04:52:58.776Z,1.50
2023-03-27T04:55:28.273Z,1.70
2023-03-27T04:58:00.350Z,1.80
2023-03-27T05:00:29.370Z,1.90
2023-03-27T05:03:13.911Z,1.90
2023-03-27T05:05:58.297Z,1.90
2023-03-27T05:08:27.637Z,1.80
2023-03-27T05:10:57.710Z,1.80
2023-03-27T05:13:28.654Z,1.80
2023-03-27T05:15:59.438Z,1.80
2023-03-27T05:18:31.102Z,2.00
2023-03-27T05:21:22.191Z,2.00
2023-03-27T05:23:58.400Z,2.10
2023-03-27T05:26:47.386Z,2.10
2023-03-27T05:30:09.679Z,2.10
2023-03-27T05:33:03.701Z,2.10
2023-03-27T05:39:01.151Z,2.20
2023-03-27T05:41:53.550Z,2.30
2023-03-27T05:45:09.401Z,2.40
2023-03-27T05:48:09.957Z,2.40
2023-03-27T05:50:47.215Z,2.60
2023-03-27T05:53:29.364Z,2.70
2023-03-27T05:56:39.463Z,2.80
2023-03-27T05:59:15.084Z,2.80
2023-03-27T06:02:05.069Z,2.90
2023-03-27T06:05:02.074Z,2.90
2023-03-27T06:07:54.970Z,3.00
2023-03-27T06:11:00.679Z,3.10
2023-03-27T06:14:16.768Z,3.20
2023-03-27T06:17:13.315Z,3.20
2023-03-27T06:19:55.164Z,3.20
2023-03-27T06:22:26.336Z,3.20
2023-03-27T06:25:15.008Z,3.20
2023-03-27T06:27:58.411Z,3.20
2023-03-27T06:31:03.143Z,3.10
2023-03-27T06:34:08.686Z,3.10
2023-03-27T06:37:12.677Z,3.00
2023-03-27T06:40:25.543Z,3.00
2023-03-27T06:43:02.702Z,2.90
2023-03-27T06:45:53.659Z,2.90
2023-03-27T06:48:53.301Z,3.00
2023-03-27T06:51:27.395Z,2.90
2023-03-27T06:54:00.839Z,3.00
2023-03-27T06:56:34.389Z,3.00
2023-03-27T06:59:56.578Z,3.20
2023-03-27T07:03:03.959Z,3.30
2023-03-27T07:05:59.404Z,3.40
2023-03-27T07:09:42.359Z,3.50
2023-03-27T07:12:21.810Z,3.60
2023-03-27T07:14:56.328Z,3.90
2023-03-27T07:17:47.904Z,4.00
2023-03-27T07:20:39.894Z,4.10
2023-03-27T07:23:42.145Z,4.20
2023-03-27T07:26:18.684Z,4.20
2023-03-27T07:29:04.304Z,4.30
2023-03-27T07:31:56.596Z,4.30
2023-03-27T07:34:46.445Z,4.40
2023-03-27T07:37:46.837Z,4.50
2023-03-27T07:41:13.960Z,4.70
2023-03-27T07:47:35.158Z,5.00
2023-03-27T07:58:08.383Z,5.20
2023-03-27T08:01:44.356Z,5.30
2023-03-27T08:08:02.769Z,5.90
2023-03-27T08:11:27.383Z,6.10
2023-03-27T08:38:46.698Z,6.60
2023-03-27T08:42:18.948Z,6.20
2023-03-27T08:48:17.831Z,6.40
2023-03-27T08:51:05.654Z,6.70
2023-03-27T08:53:44.261Z,6.50
2023-03-27T08:56:34.115Z,6.80
2023-03-27T09:00:45.934Z,7.00
2023-03-27T09:03:43.500Z,7.30
2023-03-27T09:06:57.986Z,7.10
2023-03-27T09:14:11.814Z,6.90
2023-03-27T09:18:15.921Z,7.00
2023-03-27T09:26:34.790Z,6.70
2023-03-27T09:30:04.993Z,6.50
2023-03-27T09:34:17.994Z,6.60
2023-03-27T09:37:25.118Z,6.70
2023-03-27T09:49:06.024Z,8.00
2023-03-27T09:51:53.021Z,7.50
2023-03-27T09:55:06.552Z,7.60
2023-03-27T10:41:57.875Z,5.00
2023-03-27T10:44:37.975Z,6.60
2023-03-27T10:47:20.412Z,8.10
2023-03-27T10:50:04.492Z,9.30
2023-03-27T10:53:07.643Z,10.40
2023-03-27T10:56:12.170Z,10.50
2023-03-27T10:59:04.386Z,9.00
2023-03-27T11:02:08.080Z,7.80
2023-03-27T11:04:46.740Z,8.40
2023-03-27T11:07:22.560Z,9.10
2023-03-27T11:10:42.283Z,8.30
2023-03-27T11:13:24.387Z,6.80
2023-03-27T11:16:19.703Z,5.60
2023-03-27T11:19:41.276Z,5.20
2023-03-27T11:22:51.770Z,5.50
2023-03-27T11:25:55.631Z,6.50
2023-03-27T11:28:47.415Z,7.90
2023-03-27T11:31:51.541Z,8.80
2023-03-27T11:34:51.817Z,9.20
2023-03-27T11:38:13.229Z,10.30
2023-03-27T11:41:10.847Z,10.30
2023-03-27T11:44:23.558Z,11.00
2023-03-27T12:02:05.516Z,11.70
2023-03-27T12:04:49.812Z,11.30
2023-03-27T12:07:50.142Z,8.60
2023-03-27T12:10:34.965Z,6.30
2023-03-27T12:14:01.158Z,5.50
2023-03-27T12:17:22.973Z,5.90
2023-03-27T12:20:43.608Z,6.10
2023-03-27T12:23:34.904Z,5.90
2023-03-27T12:27:00.174Z,5.70
2023-03-27T12:30:02.911Z,5.60
2023-03-27T12:33:14.195Z,5.40
2023-03-27T12:35:49.897Z,5.30
2023-03-27T12:38:31.436Z,5.50
2023-03-27T12:41:07.385Z,6.20
2023-03-27T12:44:02.488Z,8.30
2023-03-27T12:46:42.934Z,11.00
2023-03-27T12:49:48.084Z,12.50
2023-03-27T12:52:29.070Z,13.10
2023-03-27T12:55:34.371Z,12.40
2023-03-27T12:58:06.595Z,12.10
2023-03-27T13:01:01.148Z,12.70
2023-03-27T13:04:28.680Z,12.90
2023-03-27T13:07:05.573Z,12.80
2023-03-27T13:10:11.049Z,12.70
2023-03-27T13:13:07.698Z,13.80
2023-03-27T13:16:00.375Z,15.10
2023-03-27T13:18:59.472Z,15.70
2023-03-27T13:21:43.214Z,13.50
2023-03-27T13:24:38.562Z,10.00
2023-03-27T13:27:23.168Z,8.50
2023-03-27T13:29:57.879Z,8.20
2023-03-27T13:32:42.594Z,7.60
2023-03-27T13:35:36.438Z,7.90
2023-03-27T13:38:09.237Z,7.20
2023-03-27T13:41:43.197Z,6.70
2023-03-27T13:44:30.122Z,6.40
2023-03-27T13:47:11.285Z,6.40
2023-03-27T13:50:03.427Z,6.20
2023-03-27T13:53:11.799Z,8.10
2023-03-27T13:56:31.379Z,9.20
2023-03-27T13:59:45.602Z,8.40
2023-03-27T14:03:00.367Z,7.70
2023-03-27T14:05:57.137Z,8.90
2023-03-27T14:08:42.121Z,10.60
2023-03-27T14:11:55.996Z,9.80
2023-03-27T14:15:10.398Z,8.90
2023-03-27T14:18:16.576Z,8.70
2023-03-27T14:20:47.928Z,8.30
2023-03-27T14:23:23.427Z,7.80
2023-03-27T14:26:07.646Z,7.10
2023-03-27T14:28:52.095Z,6.30
2023-03-27T14:31:36.023Z,5.90
2023-03-27T14:34:22.911Z,6.40
2023-03-27T14:36:57.007Z,8.80
2023-03-27T14:39:40.885Z,11.00
2023-03-27T14:42:24.241Z,12.20
2023-03-27T14:45:13.609Z,12.40
2023-03-27T14:47:52.063Z,13.00
2023-03-27T14:50:38.193Z,14.20
2023-03-27T14:59:16.839Z,12.70
2023-03-27T15:01:57.475Z,14.30
2023-03-27T15:04:30.455Z,15.50
2023-03-27T15:07:19.531Z,15.30
2023-03-27T15:10:05.214Z,14.10
2023-03-27T15:13:00.422Z,12.20
2023-03-27T15:15:40.132Z,11.80
2023-03-27T16:15:48.463Z,8.10
2023-03-27T16:30:12.178Z,12.20
2023-03-27T16:33:01.392Z,10.40
2023-03-27T16:35:36.547Z,10.30
2023-03-27T16:38:24.920Z,10.30
2023-03-27T16:41:01.512Z,10.90
2023-03-27T16:44:05.066Z,9.90
2023-03-27T16:47:16.976Z,8.40
2023-03-27T16:50:19.113Z,8.10
2023-03-27T16:53:19.393Z,7.70
2023-03-27T16:57:14.300Z,8.60
2023-03-27T16:59:37.167Z,8.20
2023-03-27T17:02:56.397Z,7.80
2023-03-27T17:09:37.442Z,7.20
2023-03-27T18:15:08.011Z,4.10
2023-03-27T18:17:37.512Z,4.10
2023-03-27T18:20:14.291Z,4.20
2023-03-27T18:22:43.506Z,4.00
2023-03-27T18:25:13.240Z,4.00
2023-03-27T18:27:45.783Z,3.90
2023-03-27T18:46:35.984Z,4.20
2023-03-27T18:49:26.511Z,4.30
2023-03-27T19:01:14.388Z,4.40
2023-03-27T20:01:33.474Z,3.10
2023-03-27T20:04:05.111Z,3.10
2023-03-27T20:06:35.564Z,3.00
2023-03-27T20:09:09.653Z,3.00
2023-03-27T20:11:40.105Z,3.00
2023-03-27T20:14:11.820Z,2.90
2023-03-27T20:16:44.963Z,2.90
2023-03-27T20:19:19.806Z,2.90
2023-03-27T20:21:56.700Z,2.70
2023-03-27T20:24:30.257Z,2.60
2023-03-27T20:27:05.613Z,2.50
2023-03-27T20:29:38.156Z,2.60
2023-03-27T20:32:10.771Z,2.70
2023-03-27T20:34:42.013Z,2.70
2023-03-27T20:37:16.134Z,2.70
2023-03-27T20:39:47.713Z,2.60
2023-03-27T20:42:19.588Z,2.60
2023-03-27T20:44:56.581Z,2.60
2023-03-27T20:47:28.018Z,2.50
2023-03-27T20:50:01.948Z,2.40
2023-03-27T20:52:32.094Z,2.40
2023-03-27T20:55:04.263Z,2.50
2023-03-27T20:57:35.799Z,2.40
2023-03-27T21:00:08.641Z,2.20
2023-03-27T21:02:40.343Z,2.10
2023-03-27T21:05:12.715Z,2.10
2023-03-27T21:07:49.385Z,2.00
2023-03-27T21:10:21.591Z,1.90
2023-03-27T21:12:54.305Z,2.00
2023-03-27T21:15:24.064Z,1.90
2023-03-27T21:17:56.858Z,1.80
2023-03-27T21:20:29.235Z,1.80
2023-03-27T21:22:58.920Z,2.00
2023-03-27T21:25:29.484Z,2.10
2023-03-27T21:28:05.133Z,2.10
2023-03-27T21:30:46.285Z,2.30
2023-03-27T21:33:18.974Z,2.40
2023-03-27T21:35:50.381Z,2.30
2023-03-27T21:38:21.063Z,2.40
2023-03-27T21:40:51.237Z,2.40
2023-03-27T21:43:22.275Z,2.40
2023-03-27T21:45:52.185Z,2.40
2023-03-27T21:48:24.115Z,2.60
2023-03-27T21:50:54.438Z,2.60
2023-03-27T21:53:25.193Z,2.60
2023-03-27T21:55:55.142Z,2.60
2023-03-27T21:58:24.336Z,2.50
2023-03-27T22:01:00.462Z,2.60
2023-03-27T22:03:35.222Z,2.60
2023-03-27T22:06:12.923Z,2.60
2023-03-27T22:08:46.422Z,2.60
2023-03-27T22:11:18.941Z,2.60
2023-03-27T22:13:51.325Z,2.60
2023-03-27T22:16:24.571Z,2.60
2023-03-27T22:18:58.209Z,2.40
2023-03-27T22:21:31.817Z,2.50
2023-03-27T22:24:02.584Z,2.50
2023-03-27T22:26:36.215Z,2.50
2023-03-27T22:29:06.944Z,2.40
2023-03-27T22:31:36.727Z,2.30
2023-03-27T22:34:10.288Z,2.30
2023-03-27T22:36:40.043Z,2.10
2023-03-27T22:39:09.997Z,2.00
2023-03-27T22:41:39.667Z,2.10
2023-03-27T22:44:09.449Z,2.00
2023-03-27T22:46:40.060Z,2.00
2023-03-27T22:49:13.153Z,1.80
2023-03-27T22:51:46.087Z,1.90
2023-03-27T22:54:21.965Z,2.00
2023-03-27T22:56:54.831Z,1.90
2023-03-27T22:59:24.834Z,1.90
2023-03-27T23:01:57.209Z,1.80
2023-03-27T23:04:30.909Z,1.90
2023-03-27T23:07:06.723Z,1.90
2023-03-27T23:09:37.920Z,1.90
2023-03-27T23:12:10.867Z,1.90
2023-03-27T23:14:43.949Z,1.90
2023-03-27T23:17:15.019Z,1.90
2023-03-27T23:19:52.824Z,1.90
2023-03-27T23:22:23.463Z,1.90
2023-03-27T23:24:55.861Z,1.90
2023-03-27T23:27:26.621Z,1.90
2023-03-27T23:29:56.526Z,1.80
2023-03-27T23:32:27.251Z,1.90
2023-03-27T23:35:01.441Z,1.90
2023-03-27T23:37:36.170Z,1.90
2023-03-27T23:40:11.630Z,1.90
2023-03-27T23:42:49.162Z,2.00
2023-03-27T23:45:22.503Z,2.00
2023-03-27T23:47:55.425Z,1.90
2023-03-27T23:50:32.543Z,1.90
2023-03-27T23:53:03.056Z,1.80
2023-03-27T23:55:33.710Z,1.80
2023-03-27T23:58:03.390Z,1.70
